Time;durP1;ratioP1;P1;durP2;ratioP2;P2;SDS_P1;SDS_P2;PMS_P1;PMS_P2;Temp;Humidity;BMP_temperature;BMP_pressure;BME280_temperature;BME280_humidity;BME280_pressure;Samples;Min_cycle;Max_cycle;Signal;HPM_P1;HPM_P2
2021/10/13 00:02:13;;;;;;;2.03;0.93;;;2.80;99.90;;;;;;5013476;28;20036;-52
2021/10/13 00:04:38;;;;;;;2.38;0.77;;;2.70;99.90;;;;;;5013405;28;20488;-51
2021/10/13 00:07:04;;;;;;;1.52;0.98;;;2.70;99.90;;;;;;5013343;28;20026;-53
2021/10/13 00:09:29;;;;;;;1.38;0.80;;;2.70;99.90;;;;;;5013300;28;20117;-48
2021/10/13 00:11:55;;;;;;;1.50;0.98;;;2.60;99.90;;;;;;5013338;28;20033;-51
2021/10/13 00:14:21;;;;;;;1.58;1.00;;;2.60;99.90;;;;;;5012098;28;20030;-51
2021/10/13 00:16:53;;;;;;;1.25;1.05;;;2.60;99.90;;;;;;5013319;28;20112;-47
2021/10/13 00:19:20;;;;;;;1.48;0.88;;;2.50;99.90;;;;;;5013168;28;20061;-49
2021/10/13 00:21:45;;;;;;;1.40;0.90;;;2.50;99.90;;;;;;5013147;28;20481;-48
2021/10/13 00:24:11;;;;;;;1.48;1.10;;;2.50;99.90;;;;;;5013149;28;20064;-52
2021/10/13 00:26:36;;;;;;;4.03;1.30;;;2.40;99.90;;;;;;5013180;28;20056;-51
2021/10/13 00:29:02;;;;;;;1.92;1.10;;;2.40;99.90;;;;;;5011869;28;20062;-51
2021/10/13 00:31:28;;;;;;;3.53;1.33;;;2.40;99.90;;;;;;5013113;28;20037;-48
2021/10/13 00:33:54;;;;;;;1.73;1.23;;;2.30;99.90;;;;;;5013112;28;20034;-50
2021/10/13 00:36:19;;;;;;;1.70;1.00;;;2.20;99.90;;;;;;5012898;28;20145;-53
2021/10/13 00:38:45;;;;;;;1.63;1.13;;;2.20;99.90;;;;;;5012917;28;20064;-51
2021/10/13 00:41:10;;;;;;;1.67;0.90;;;2.20;99.90;;;;;;5013039;28;20064;-50
2021/10/13 00:43:36;;;;;;;1.73;1.13;;;2.20;99.90;;;;;;5011740;28;20403;-50
2021/10/13 00:46:02;;;;;;;1.83;1.17;;;2.20;99.90;;;;;;5013040;28;20033;-48
2021/10/13 00:48:27;;;;;;;1.45;1.00;;;2.20;99.90;;;;;;5012894;28;20030;-49
2021/10/13 00:50:54;;;;;;;1.45;1.00;;;2.10;99.90;;;;;;5012926;28;20038;-50
2021/10/13 00:53:20;;;;;;;3.08;1.00;;;2.20;99.90;;;;;;5012817;28;20026;-46
2021/10/13 00:55:45;;;;;;;3.55;1.40;;;2.20;99.90;;;;;;5012931;28;20034;-49
2021/10/13 00:58:11;;;;;;;2.15;0.95;;;2.20;99.90;;;;;;5012782;28;20041;-53
2021/10/13 01:00:44;;;;;;;1.77;1.00;;;2.20;99.90;;;;;;5016775;28;20041;-49
2021/10/13 01:03:27;;;;;;;1.85;1.02;;;2.20;99.90;;;;;;5016784;28;20052;-49
2021/10/13 01:06:16;;;;;;;2.28;0.90;;;2.30;99.90;;;;;;5016736;28;20033;-49
2021/10/13 01:09:09;;;;;;;1.45;1.00;;;2.30;99.90;;;;;;5016710;28;20075;-48
2021/10/13 01:12:10;;;;;;;1.35;0.93;;;2.30;99.90;;;;;;5016665;28;20026;-48
2021/10/13 01:15:02;;;;;;;1.15;0.90;;;2.20;99.90;;;;;;4984912;28;20103;-55
2021/10/13 01:17:40;;;;;;;1.85;1.10;;;2.20;99.90;;;;;;5016538;28;20037;-53
2021/10/13 01:20:11;;;;;;;1.30;0.90;;;2.20;99.90;;;;;;5016382;28;20026;-49
2021/10/13 01:22:57;;;;;;;1.83;1.20;;;2.20;99.90;;;;;;5016429;28;20026;-53
2021/10/13 01:25:47;;;;;;;2.38;1.25;;;2.20;99.90;;;;;;5016342;28;20499;-52
2021/10/13 01:28:18;;;;;;;1.65;1.20;;;2.20;99.90;;;;;;5015023;28;20477;-51
2021/10/13 01:31:05;;;;;;;0.98;0.88;;;2.10;99.90;;;;;;5016145;28;20034;-51
2021/10/13 01:33:43;;;;;;;2.45;0.88;;;2.10;99.90;;;;;;5016164;28;20034;-55
2021/10/13 01:36:13;;;;;;;1.48;1.10;;;2.10;99.90;;;;;;5016023;28;20050;-52
2021/10/13 01:38:43;;;;;;;1.50;0.98;;;2.10;99.90;;;;;;5016072;28;20481;-51
2021/10/13 01:41:11;;;;;;;1.17;0.80;;;2.10;99.90;;;;;;5016254;28;20377;-52
2021/10/13 01:43:40;;;;;;;4.53;1.10;;;2.10;99.90;;;;;;5014712;28;20045;-51
2021/10/13 01:46:07;;;;;;;1.75;1.10;;;2.00;99.90;;;;;;5016032;28;20028;-54
2021/10/13 01:48:35;;;;;;;1.45;1.10;;;2.10;99.90;;;;;;5015978;28;20029;-50
2021/10/13 01:51:01;;;;;;;2.55;0.93;;;2.00;99.90;;;;;;5015891;28;20021;-49
2021/10/13 01:53:27;;;;;;;1.45;1.05;;;2.00;99.90;;;;;;5015831;28;20507;-51
2021/10/13 01:55:56;;;;;;;1.35;0.88;;;2.00;99.90;;;;;;5015697;28;20018;-51
2021/10/13 01:58:24;;;;;;;1.33;1.08;;;2.00;99.90;;;;;;5014519;28;20018;-48
2021/10/13 02:00:51;;;;;;;2.67;1.40;;;2.00;99.90;;;;;;5015686;28;20029;-49
2021/10/13 02:03:20;;;;;;;3.70;1.10;;;2.00;99.90;;;;;;5015696;28;20253;-54
2021/10/13 02:05:48;;;;;;;1.00;0.90;;;2.00;99.90;;;;;;5015802;28;20053;-51
2021/10/13 02:08:16;;;;;;;4.35;1.15;;;2.10;99.90;;;;;;5015477;28;20496;-50
2021/10/13 02:10:45;;;;;;;2.50;1.10;;;2.10;99.90;;;;;;5011521;28;20033;-49
2021/10/13 02:13:12;;;;;;;1.65;1.10;;;2.20;99.90;;;;;;5014281;28;20473;-53
2021/10/13 02:15:41;;;;;;;1.00;0.90;;;2.30;99.90;;;;;;5015444;28;20068;-49
2021/10/13 02:18:08;;;;;;;0.93;0.82;;;2.40;99.90;;;;;;5015439;28;20029;-51
2021/10/13 02:20:34;;;;;;;1.20;0.90;;;2.40;99.90;;;;;;5015241;28;20018;-51
2021/10/13 02:23:04;;;;;;;3.30;1.30;;;2.40;99.90;;;;;;5015332;28;20504;-53
2021/10/13 02:25:33;;;;;;;3.28;1.27;;;2.50;99.90;;;;;;5015227;28;20018;-54
2021/10/13 02:28:08;;;;;;;2.45;1.20;;;2.50;99.90;;;;;;5013975;28;20025;-49
2021/10/13 02:30:34;;;;;;;2.78;0.85;;;2.60;99.90;;;;;;5015183;28;20405;-50
2021/10/13 02:32:59;;;;;;;1.67;1.00;;;2.70;99.90;;;;;;5015162;28;20106;-54
2021/10/13 02:35:25;;;;;;;2.08;1.05;;;2.80;99.90;;;;;;5014818;28;20068;-52
2021/10/13 02:37:50;;;;;;;2.45;1.00;;;2.90;99.90;;;;;;5015088;28;20026;-47
2021/10/13 02:40:16;;;;;;;1.98;0.88;;;3.00;99.90;;;;;;5014932;28;20036;-51
2021/10/13 02:42:42;;;;;;;2.40;1.23;;;3.10;99.90;;;;;;5013626;28;20022;-49
2021/10/13 02:45:08;;;;;;;2.95;0.85;;;3.20;99.90;;;;;;5014925;28;20023;-51
2021/10/13 02:47:39;;;;;;;3.38;1.17;;;3.30;99.90;;;;;;5014838;28;20033;-51
2021/10/13 02:50:10;;;;;;;2.08;1.20;;;3.30;99.90;;;;;;5014708;28;20041;-49
2021/10/13 02:52:44;;;;;;;3.25;1.15;;;3.40;99.90;;;;;;5014695;28;20036;-48
2021/10/13 02:55:21;;;;;;;2.75;1.10;;;3.50;99.90;;;;;;5014600;28;20481;-46
2021/10/13 02:57:55;;;;;;;4.53;1.02;;;3.60;99.90;;;;;;5013426;28;20058;-49
2021/10/13 03:00:22;;;;;;;1.10;0.90;;;3.70;99.90;;;;;;5014615;28;20069;-47
2021/10/13 03:02:56;;;;;;;1.77;1.10;;;3.70;99.90;;;;;;5014532;28;20014;-50
2021/10/13 03:05:24;;;;;;;1.58;1.10;;;3.80;99.90;;;;;;5014513;28;20018;-51
2021/10/13 03:07:52;;;;;;;2.53;1.13;;;3.80;99.90;;;;;;5014443;28;20030;-49
2021/10/13 03:10:18;;;;;;;2.58;0.98;;;3.90;99.90;;;;;;5014369;28;20428;-49
2021/10/13 03:12:56;;;;;;;2.20;1.30;;;3.90;99.90;;;;;;5013056;28;20428;-48
2021/10/13 03:15:23;;;;;;;2.72;1.00;;;4.00;99.90;;;;;;5014387;28;20033;-50
2021/10/13 03:17:53;;;;;;;2.33;1.17;;;4.00;99.90;;;;;;5014323;28;20084;-48
2021/10/13 03:20:20;;;;;;;1.95;1.08;;;4.00;99.90;;;;;;5014002;28;20033;-50
2021/10/13 03:22:47;;;;;;;2.15;0.90;;;4.00;99.90;;;;;;5014030;28;20117;-50
2021/10/13 03:25:21;;;;;;;3.97;1.10;;;4.00;99.90;;;;;;5014178;28;20030;-48
2021/10/13 03:27:47;;;;;;;2.55;1.27;;;4.00;99.90;;;;;;5012793;28;20056;-54
2021/10/13 03:30:12;;;;;;;1.77;1.30;;;4.00;99.90;;;;;;5014117;28;20469;-48
2021/10/13 03:32:38;;;;;;;2.67;1.08;;;4.00;99.90;;;;;;5014005;28;20153;-47
2021/10/13 03:35:04;;;;;;;2.25;1.10;;;4.00;99.90;;;;;;5013850;28;20421;-52
2021/10/13 03:37:29;;;;;;;2.25;1.10;;;4.00;99.90;;;;;;5013973;28;20034;-50
2021/10/13 03:39:56;;;;;;;1.85;1.00;;;4.00;99.90;;;;;;5013801;28;20033;-48
2021/10/13 03:42:22;;;;;;;1.67;1.35;;;4.00;99.90;;;;;;5013871;28;20050;-50
2021/10/13 03:44:48;;;;;;;2.53;1.35;;;4.00;99.90;;;;;;5007917;28;20033;-53
2021/10/13 03:47:13;;;;;;;2.45;1.00;;;4.00;99.90;;;;;;5013767;28;20030;-53
2021/10/13 03:49:39;;;;;;;2.72;1.50;;;4.00;99.90;;;;;;5013736;28;20556;-53
2021/10/13 03:52:05;;;;;;;1.63;1.10;;;4.00;99.90;;;;;;5013700;28;20033;-53
2021/10/13 03:54:30;;;;;;;3.95;1.45;;;4.00;99.90;;;;;;5013586;28;20057;-53
2021/10/13 03:56:56;;;;;;;3.33;1.20;;;4.00;99.90;;;;;;5013510;28;20026;-50
2021/10/13 03:59:21;;;;;;;2.90;1.40;;;4.00;99.90;;;;;;5012225;28;20033;-51
2021/10/13 04:01:47;;;;;;;3.83;1.30;;;4.00;99.90;;;;;;5013463;28;20080;-50
2021/10/13 04:04:12;;;;;;;4.45;1.35;;;4.00;99.90;;;;;;5013534;28;20030;-53
2021/10/13 04:06:38;;;;;;;1.73;1.33;;;4.00;99.90;;;;;;5013435;28;20018;-54
2021/10/13 04:09:05;;;;;;;2.03;1.40;;;3.90;99.90;;;;;;5013467;28;20037;-49
2021/10/13 04:11:31;;;;;;;4.30;1.35;;;4.00;99.90;;;;;;5013306;28;20029;-50
2021/10/13 04:13:56;;;;;;;2.10;1.10;;;3.90;99.90;;;;;;5011904;28;20026;-54
2021/10/13 04:16:22;;;;;;;1.90;1.10;;;3.90;99.90;;;;;;5013295;28;20038;-48
2021/10/13 04:18:47;;;;;;;1.75;1.05;;;3.90;99.90;;;;;;5013184;28;20030;-54
2021/10/13 04:21:13;;;;;;;3.65;1.20;;;3.90;99.90;;;;;;5013240;28;20026;-49
2021/10/13 04:23:38;;;;;;;1.95;0.90;;;3.90;99.90;;;;;;5013180;28;20030;-47
2021/10/13 04:26:04;;;;;;;3.13;1.50;;;3.90;99.90;;;;;;5013055;28;20412;-50
2021/10/13 04:28:29;;;;;;;3.08;1.30;;;3.90;99.90;;;;;;5011824;28;20028;-53
2021/10/13 04:30:55;;;;;;;1.80;1.05;;;3.90;99.90;;;;;;5013091;28;20034;-50
2021/10/13 04:33:20;;;;;;;1.77;1.20;;;3.90;99.90;;;;;;5012346;28;20042;-49
2021/10/13 04:35:46;;;;;;;2.40;0.98;;;3.90;99.90;;;;;;5012869;28;20046;-48
2021/10/13 04:38:11;;;;;;;1.83;1.52;;;3.90;99.90;;;;;;5013000;28;20037;-50
2021/10/13 04:40:37;;;;;;;5.50;1.50;;;4.00;99.90;;;;;;5012884;28;20053;-51
2021/10/13 04:43:03;;;;;;;2.33;0.95;;;4.00;99.90;;;;;;5011813;28;20029;-49
2021/10/13 04:45:28;;;;;;;1.70;1.00;;;4.00;99.90;;;;;;5013057;28;20506;-48
2021/10/13 04:47:54;;;;;;;1.45;1.17;;;4.00;99.90;;;;;;5012958;28;20449;-52
2021/10/13 04:50:19;;;;;;;1.63;1.10;;;4.10;99.90;;;;;;5012989;28;20064;-51
2021/10/13 04:52:45;;;;;;;2.95;1.10;;;4.10;99.90;;;;;;5012947;28;20156;-48
2021/10/13 04:55:11;;;;;;;4.88;1.48;;;4.10;99.90;;;;;;5012865;28;20021;-52
2021/10/13 04:57:37;;;;;;;2.33;1.35;;;4.20;99.90;;;;;;5011595;28;20138;-53
2021/10/13 05:00:07;;;;;;;1.25;1.00;;;4.20;99.90;;;;;;5012856;28;20025;-50
2021/10/13 05:02:32;;;;;;;2.55;1.10;;;4.20;99.90;;;;;;5012798;28;20022;-49
2021/10/13 05:04:58;;;;;;;1.30;1.10;;;4.30;99.90;;;;;;5012802;28;20060;-53
2021/10/13 05:07:23;;;;;;;2.05;1.20;;;4.30;99.90;;;;;;5012839;28;20049;-51
2021/10/13 05:09:49;;;;;;;2.17;1.15;;;4.30;99.90;;;;;;5012603;28;20469;-50
2021/10/13 05:12:14;;;;;;;3.30;1.55;;;4.40;99.90;;;;;;5012746;28;20037;-53
2021/10/13 05:14:40;;;;;;;2.13;1.30;;;4.40;99.90;;;;;;4993882;28;20354;-50
2021/10/13 05:17:05;;;;;;;4.93;1.30;;;4.50;99.90;;;;;;5012764;28;20080;-49
2021/10/13 05:19:31;;;;;;;3.33;1.55;;;4.50;99.90;;;;;;5012701;28;20417;-47
2021/10/13 05:21:56;;;;;;;3.88;1.20;;;4.50;99.90;;;;;;5012661;28;20102;-52
2021/10/13 05:24:22;;;;;;;2.17;1.30;;;4.60;99.90;;;;;;5012507;28;20054;-50
2021/10/13 05:26:47;;;;;;;3.35;1.23;;;4.60;99.90;;;;;;5012600;28;20030;-51
2021/10/13 05:29:13;;;;;;;3.55;1.40;;;4.70;99.90;;;;;;5011365;28;20030;-47
2021/10/13 05:31:38;;;;;;;2.45;1.50;;;4.70;99.90;;;;;;5012574;28;20026;-49
2021/10/13 05:34:04;;;;;;;2.72;1.30;;;4.70;99.90;;;;;;5012404;28;20067;-49
2021/10/13 05:36:29;;;;;;;4.85;1.40;;;4.80;99.90;;;;;;4995189;28;20120;-55
2021/10/13 05:38:56;;;;;;;2.17;1.02;;;4.80;99.90;;;;;;5012321;28;20049;-54
2021/10/13 05:41:22;;;;;;;2.70;1.35;;;4.80;99.90;;;;;;5012504;28;20098;-50
2021/10/13 05:43:47;;;;;;;2.33;1.55;;;4.90;99.90;;;;;;5011475;28;20108;-52
2021/10/13 05:46:13;;;;;;;2.08;1.42;;;4.90;99.90;;;;;;5016039;28;20092;-48
2021/10/13 05:48:38;;;;;;;2.65;1.42;;;4.90;99.90;;;;;;5015977;28;20060;-50
2021/10/13 05:51:04;;;;;;;1.75;1.20;;;4.90;99.90;;;;;;5016144;28;20084;-49
2021/10/13 05:53:29;;;;;;;6.43;1.77;;;5.00;99.90;;;;;;5015875;28;20044;-49
2021/10/13 05:55:55;;;;;;;4.50;1.55;;;5.00;99.90;;;;;;4998150;28;20026;-50
2021/10/13 05:58:23;;;;;;;2.70;1.55;;;5.00;99.90;;;;;;5014520;28;20033;-48
2021/10/13 06:00:49;;;;;;;1.98;1.30;;;5.10;99.90;;;;;;5015673;28;20022;-49
2021/10/13 06:03:14;;;;;;;3.53;1.65;;;5.20;99.90;;;;;;5015928;28;20030;-54
2021/10/13 06:05:40;;;;;;;2.67;1.52;;;5.20;99.90;;;;;;5015638;28;20037;-49
2021/10/13 06:08:05;;;;;;;5.68;1.70;;;5.30;99.90;;;;;;5015507;28;20068;-49
2021/10/13 06:10:31;;;;;;;3.90;1.77;;;5.30;99.90;;;;;;5015619;28;20390;-54
2021/10/13 06:12:56;;;;;;;2.22;1.55;;;5.30;99.90;;;;;;5014226;28;20528;-51
2021/10/13 06:15:24;;;;;;;2.80;1.30;;;5.40;99.90;;;;;;5015567;28;20028;-50
2021/10/13 06:17:49;;;;;;;2.22;1.65;;;5.40;99.90;;;;;;5015530;28;20485;-52
2021/10/13 06:20:15;;;;;;;2.88;1.45;;;5.50;99.90;;;;;;5015354;28;20084;-55
2021/10/13 06:22:40;;;;;;;2.83;1.85;;;5.50;99.90;;;;;;5015257;28;20113;-53
2021/10/13 06:25:07;;;;;;;1.77;1.48;;;5.60;99.90;;;;;;5015380;28;20047;-52
2021/10/13 06:27:33;;;;;;;2.78;1.48;;;5.60;99.90;;;;;;5014032;28;20033;-50
2021/10/13 06:29:59;;;;;;;2.08;1.20;;;5.70;99.90;;;;;;5015147;28;20080;-50
2021/10/13 06:32:24;;;;;;;4.05;1.55;;;5.80;99.90;;;;;;4997655;28;20638;-51
2021/10/13 06:34:50;;;;;;;4.05;1.98;;;5.80;99.90;;;;;;5015046;28;20057;-50
2021/10/13 06:37:15;;;;;;;5.35;1.80;;;5.90;99.90;;;;;;5015100;28;20041;-52
2021/10/13 06:39:41;;;;;;;4.05;1.60;;;6.00;99.90;;;;;;5014911;28;20033;-50
2021/10/13 06:42:06;;;;;;;2.42;1.60;;;6.00;99.90;;;;;;5015010;28;20511;-54
2021/10/13 06:44:32;;;;;;;5.53;1.58;;;6.10;99.90;;;;;;5013786;28;20018;-48
2021/10/13 06:46:57;;;;;;;2.63;1.60;;;6.10;99.90;;;;;;5014878;28;20029;-52
2021/10/13 06:49:23;;;;;;;5.13;1.92;;;6.20;99.90;;;;;;5014908;28;20032;-50
2021/10/13 06:51:49;;;;;;;2.17;1.50;;;6.20;99.90;;;;;;5014780;28;20032;-52
2021/10/13 06:54:15;;;;;;;2.35;1.48;;;6.30;99.90;;;;;;5014786;28;20081;-52
2021/10/13 06:56:41;;;;;;;2.90;1.70;;;6.40;99.90;;;;;;5014060;28;20088;-48
2021/10/13 06:59:06;;;;;;;4.18;1.67;;;6.40;99.90;;;;;;5013276;28;20034;-50
2021/10/13 07:01:33;;;;;;;3.78;1.58;;;6.50;99.90;;;;;;5014679;28;20080;-50
2021/10/13 07:03:58;;;;;;;4.05;1.67;;;6.50;99.90;;;;;;5014569;28;20018;-54
2021/10/13 07:06:24;;;;;;;4.68;1.60;;;6.70;99.90;;;;;;5014562;28;20033;-52
2021/10/13 07:08:50;;;;;;;3.05;1.85;;;6.70;99.90;;;;;;5014372;28;20038;-50
2021/10/13 07:11:15;;;;;;;2.72;1.45;;;6.90;99.90;;;;;;5014434;28;20032;-50
2021/10/13 07:13:41;;;;;;;3.92;2.35;;;7.00;99.90;;;;;;5013136;28;20484;-49
2021/10/13 07:16:06;;;;;;;1.70;1.20;;;7.20;99.90;;;;;;5014317;28;20436;-50
2021/10/13 07:18:32;;;;;;;2.38;1.55;;;7.30;99.90;;;;;;5014362;28;20101;-50
2021/10/13 07:20:58;;;;;;;5.07;2.00;;;7.40;99.90;;;;;;5014140;28;20033;-50
2021/10/13 07:23:23;;;;;;;4.82;1.65;;;7.50;99.90;;;;;;5014115;28;20022;-52
2021/10/13 07:25:49;;;;;;;4.15;1.73;;;7.60;99.90;;;;;;5014135;28;20022;-55
2021/10/13 07:28:15;;;;;;;3.40;2.33;;;7.70;99.90;;;;;;5012880;28;20026;-52
2021/10/13 07:30:41;;;;;;;2.70;1.92;;;7.80;99.90;;;;;;5014162;28;20102;-51
2021/10/13 07:33:06;;;;;;;2.45;2.15;;;7.80;99.90;;;;;;5014031;28;20420;-53
2021/10/13 07:35:32;;;;;;;3.20;1.63;;;8.00;99.90;;;;;;5013801;28;20493;-51
2021/10/13 07:37:58;;;;;;;1.75;1.52;;;8.10;99.90;;;;;;5013781;28;20030;-51
2021/10/13 07:40:25;;;;;;;2.17;1.73;;;8.30;99.90;;;;;;5013905;28;20026;-54
2021/10/13 07:42:51;;;;;;;3.85;2.08;;;8.50;99.90;;;;;;5012582;28;20481;-56
2021/10/13 07:45:18;;;;;;;3.08;2.30;;;8.70;99.90;;;;;;5013856;28;20469;-51
2021/10/13 07:47:44;;;;;;;4.03;2.10;;;9.00;99.90;;;;;;5013831;28;20029;-51
2021/10/13 07:50:10;;;;;;;5.47;2.00;;;9.50;99.90;;;;;;5013681;28;20033;-50
2021/10/13 07:52:36;;;;;;;2.83;1.83;;;10.00;99.90;;;;;;5013615;28;20030;-52
2021/10/13 07:55:02;;;;;;;2.50;1.95;;;10.40;99.90;;;;;;5013714;28;20075;-52
2021/10/13 07:57:28;;;;;;;3.58;2.22;;;10.70;99.90;;;;;;5012316;28;20106;-48
2021/10/13 07:59:53;;;;;;;2.78;1.80;;;11.00;99.90;;;;;;5013492;28;20026;-56
2021/10/13 08:02:18;;;;;;;4.30;2.35;;;11.00;99.90;;;;;;5013552;28;20030;-53
2021/10/13 08:04:44;;;;;;;5.05;2.03;;;11.20;99.90;;;;;;5013560;28;20390;-53
2021/10/13 08:07:09;;;;;;;2.47;1.85;;;11.20;99.90;;;;;;5013351;28;20084;-53
2021/10/13 08:09:35;;;;;;;2.80;1.92;;;11.20;99.90;;;;;;5013486;28;20108;-50
2021/10/13 08:12:01;;;;;;;2.97;2.13;;;11.10;99.90;;;;;;5013592;28;20053;-53
2021/10/13 08:14:27;;;;;;;3.72;2.10;;;11.10;99.90;;;;;;5012171;28;20037;-49
2021/10/13 08:16:53;;;;;;;3.72;2.25;;;11.00;99.90;;;;;;5013359;28;20026;-53
2021/10/13 08:19:19;;;;;;;3.17;1.83;;;11.00;99.90;;;;;;5013293;28;20104;-54
2021/10/13 08:21:45;;;;;;;4.03;2.55;;;11.00;99.90;;;;;;5013193;28;20033;-51
2021/10/13 08:24:10;;;;;;;6.03;2.80;;;10.90;99.90;;;;;;5013264;28;20068;-51
2021/10/13 08:26:36;;;;;;;2.65;2.15;;;11.00;99.90;;;;;;5013247;28;20117;-51
2021/10/13 08:29:02;;;;;;;2.80;2.10;;;11.00;99.90;;;;;;5011902;28;20068;-51
2021/10/13 08:31:28;;;;;;;3.38;2.17;;;11.10;99.90;;;;;;5013279;28;20069;-53
2021/10/13 08:33:53;;;;;;;3.20;2.00;;;11.30;99.90;;;;;;5013025;28;20026;-52
2021/10/13 08:36:20;;;;;;;2.30;1.65;;;11.50;99.90;;;;;;5012798;28;20060;-50
2021/10/13 08:38:46;;;;;;;3.60;2.05;;;11.70;99.90;;;;;;5013104;28;20018;-48
2021/10/13 08:41:12;;;;;;;4.30;2.28;;;11.90;99.90;;;;;;5012982;28;20088;-53
2021/10/13 08:43:37;;;;;;;3.15;1.85;;;12.10;99.90;;;;;;5011839;28;20022;-53
2021/10/13 08:46:03;;;;;;;2.28;1.77;;;12.50;99.90;;;;;;5012926;28;20057;-53
2021/10/13 08:48:29;;;;;;;3.03;2.10;;;12.80;99.90;;;;;;5012948;28;20029;-51
2021/10/13 08:50:54;;;;;;;2.72;2.20;;;13.10;99.90;;;;;;5012749;28;20041;-52
2021/10/13 08:53:24;;;;;;;3.72;2.40;;;13.20;99.90;;;;;;5012917;28;20041;-54
2021/10/13 08:55:51;;;;;;;3.00;2.00;;;13.40;99.90;;;;;;5012908;28;20029;-54
2021/10/13 08:58:22;;;;;;;5.32;2.13;;;13.60;99.90;;;;;;5011536;28;20033;-56
2021/10/13 09:01:04;;;;;;;3.55;1.92;;;13.70;99.90;;;;;;5012748;28;20041;-55
2021/10/13 09:03:35;;;;;;;4.05;2.10;;;13.70;99.90;;;;;;5012694;28;20026;-52
2021/10/13 09:06:24;;;;;;;3.83;2.30;;;13.70;99.90;;;;;;5012709;28;20030;-51
2021/10/13 09:08:58;;;;;;;2.72;1.75;;;13.80;99.90;;;;;;5012778;28;20060;-52
2021/10/13 09:11:31;;;;;;;3.15;1.77;;;13.80;99.90;;;;;;5012845;28;20033;-53
2021/10/13 09:14:14;;;;;;;2.92;2.15;;;13.70;99.90;;;;;;5011248;28;20499;-47
2021/10/13 09:16:53;;;;;;;4.85;2.28;;;13.70;99.90;;;;;;5012722;28;20030;-48
2021/10/13 09:19:21;;;;;;;4.35;2.38;;;13.70;99.90;;;;;;5013927;28;20473;-52
2021/10/13 09:22:04;;;;;;;3.67;2.28;;;13.60;99.90;;;;;;5016485;28;20026;-49
2021/10/13 09:24:32;;;;;;;3.05;1.73;;;13.50;99.90;;;;;;5016636;28;20433;-47
2021/10/13 09:27:18;;;;;;;5.55;2.90;;;13.50;99.90;;;;;;5016366;28;20033;-49
2021/10/13 09:29:44;;;;;;;4.15;2.60;;;13.50;99.10;;;;;;5014961;28;20536;-53
2021/10/13 09:32:10;;;;;;;3.95;2.63;;;13.60;99.90;;;;;;5016234;28;20026;-50
2021/10/13 09:34:44;;;;;;;5.90;3.33;;;13.50;99.90;;;;;;5016054;28;20054;-50
2021/10/13 09:37:10;;;;;;;6.68;2.65;;;13.50;99.70;;;;;;5016180;28;20060;-52
2021/10/13 09:39:37;;;;;;;3.92;2.83;;;13.50;99.90;;;;;;5016042;28;20062;-52
2021/10/13 09:42:12;;;;;;;4.50;2.65;;;13.50;99.80;;;;;;5016058;28;20077;-48
2021/10/13 09:44:56;;;;;;;4.28;2.10;;;13.40;99.20;;;;;;5014729;28;20061;-49
2021/10/13 09:47:29;;;;;;;3.00;2.22;;;13.30;98.50;;;;;;5015849;28;20033;-51
2021/10/13 09:49:55;;;;;;;5.72;2.40;;;13.30;99.90;;;;;;5015911;28;20552;-47
2021/10/13 09:52:29;;;;;;;3.58;2.17;;;13.30;99.90;;;;;;5015875;28;20030;-52
2021/10/13 09:55:08;;;;;;;4.20;2.17;;;13.40;99.50;;;;;;5015871;28;20034;-49
2021/10/13 09:57:46;;;;;;;5.25;2.42;;;13.30;99.30;;;;;;5014368;28;20057;-54
2021/10/13 10:00:21;;;;;;;4.50;2.53;;;13.30;97.50;;;;;;5015646;28;20026;-48
2021/10/13 10:02:53;;;;;;;5.68;2.08;;;13.20;98.00;;;;;;5015748;28;20049;-50
2021/10/13 10:05:34;;;;;;;5.85;3.58;;;13.20;97.90;;;;;;5015620;28;20429;-49
2021/10/13 10:08:18;;;;;;;4.85;2.33;;;13.10;96.70;;;;;;5015539;28;20030;-50
2021/10/13 10:11:05;;;;;;;4.05;2.50;;;13.00;98.30;;;;;;5015570;28;20030;-50
2021/10/13 10:13:40;;;;;;;4.00;1.92;;;13.00;97.50;;;;;;5014203;28;20045;-49
2021/10/13 10:16:08;;;;;;;3.75;1.83;;;13.00;98.10;;;;;;5015492;28;20067;-50
2021/10/13 10:18:37;;;;;;;4.72;1.70;;;13.20;98.60;;;;;;5015251;28;20120;-53
2021/10/13 10:21:25;;;;;;;1.90;1.50;;;13.40;98.60;;;;;;5015345;28;20057;-51
2021/10/13 10:23:56;;;;;;;2.78;1.88;;;13.60;97.10;;;;;;5015362;28;20036;-49
2021/10/13 10:26:25;;;;;;;3.47;1.77;;;13.80;96.70;;;;;;5015302;28;20097;-49
2021/10/13 10:28:54;;;;;;;3.20;1.92;;;13.90;94.80;;;;;;5013949;28;20393;-49
2021/10/13 10:31:29;;;;;;;3.40;1.90;;;14.00;95.10;;;;;;5014003;28;20050;-54
2021/10/13 10:34:03;;;;;;;3.45;2.63;;;14.10;94.50;;;;;;5015304;28;20026;-46
2021/10/13 10:36:29;;;;;;;2.88;1.80;;;14.20;94.80;;;;;;5015021;28;20121;-48
2021/10/13 10:38:55;;;;;;;2.13;1.33;;;14.20;94.90;;;;;;5014991;28;20445;-49
2021/10/13 10:41:20;;;;;;;2.15;1.50;;;14.20;94.90;;;;;;5014941;28;20099;-49
2021/10/13 10:43:46;;;;;;;3.08;1.38;;;14.20;94.80;;;;;;5013778;28;20092;-47
2021/10/13 10:46:11;;;;;;;2.28;1.52;;;14.10;95.00;;;;;;5014858;28;20030;-51
2021/10/13 10:48:45;;;;;;;1.10;1.00;;;14.00;93.80;;;;;;5014904;28;20163;-47
2021/10/13 10:51:11;;;;;;;2.45;1.00;;;13.90;93.50;;;;;;5014841;28;20367;-51
2021/10/13 10:53:45;;;;;;;1.35;1.10;;;13.80;95.10;;;;;;5014755;28;20034;-48
2021/10/13 10:56:27;;;;;;;1.55;1.17;;;13.80;95.60;;;;;;5014592;28;20041;-49
2021/10/13 10:59:01;;;;;;;1.88;1.17;;;13.90;94.70;;;;;;5013374;28;20072;-47
2021/10/13 11:01:26;;;;;;;1.63;0.90;;;13.90;91.80;;;;;;5014624;28;20884;-48
2021/10/13 11:03:52;;;;;;;1.88;0.93;;;14.00;93.40;;;;;;5014606;28;20105;-49
2021/10/13 11:06:19;;;;;;;2.33;1.13;;;14.20;93.20;;;;;;5014493;28;20037;-45
2021/10/13 11:08:48;;;;;;;2.45;0.70;;;14.20;93.00;;;;;;5014463;28;20021;-53
2021/10/13 11:11:15;;;;;;;1.50;0.80;;;14.10;93.30;;;;;;5014498;28;20162;-54
2021/10/13 11:13:40;;;;;;;1.20;0.65;;;14.10;91.90;;;;;;5013086;28;20116;-49
2021/10/13 11:16:07;;;;;;;0.68;0.60;;;14.00;86.80;;;;;;5014365;28;20108;-45
2021/10/13 11:18:33;;;;;;;1.23;0.60;;;14.00;90.90;;;;;;5014376;28;20120;-47
2021/10/13 11:21:08;;;;;;;1.52;0.90;;;14.00;91.30;;;;;;5014201;28;20386;-46
2021/10/13 11:23:34;;;;;;;3.05;0.80;;;13.90;91.00;;;;;;5014265;28;20030;-51
2021/10/13 11:25:59;;;;;;;0.65;0.50;;;13.90;90.10;;;;;;5014183;28;20580;-47
2021/10/13 11:28:36;;;;;;;1.10;0.60;;;13.90;90.30;;;;;;4995209;28;20041;-46
2021/10/13 11:31:06;;;;;;;1.63;0.70;;;13.90;84.20;;;;;;5014045;28;20469;-54
2021/10/13 11:33:32;;;;;;;1.95;0.70;;;13.70;85.40;;;;;;5014057;28;20105;-51
2021/10/13 11:36:03;;;;;;;0.45;0.45;;;13.70;86.80;;;;;;5013878;28;20173;-50
2021/10/13 11:38:33;;;;;;;0.98;0.50;;;13.60;88.50;;;;;;5013923;28;20097;-51
2021/10/13 11:41:14;;;;;;;0.90;0.57;;;13.50;89.40;;;;;;5013808;28;20053;-48
2021/10/13 11:43:41;;;;;;;1.02;0.55;;;13.50;79.70;;;;;;5012363;28;20397;-53
2021/10/13 11:46:07;;;;;;;0.98;0.60;;;13.40;86.30;;;;;;5013712;28;20209;-51
2021/10/13 11:48:35;;;;;;;1.30;0.43;;;13.40;85.80;;;;;;5013762;28;20133;-53
2021/10/13 11:51:07;;;;;;;1.75;0.55;;;13.50;86.80;;;;;;5013708;28;20531;-49
2021/10/13 11:53:33;;;;;;;0.75;0.55;;;13.60;85.80;;;;;;5013676;28;20105;-52
2021/10/13 11:55:59;;;;;;;1.17;0.63;;;13.70;85.60;;;;;;5013613;28;20066;-53
2021/10/13 11:58:31;;;;;;;1.08;0.57;;;13.80;83.70;;;;;;5012269;28;20057;-51
2021/10/13 12:00:58;;;;;;;2.10;0.63;;;13.80;75.40;;;;;;5013400;28;20034;-48
2021/10/13 12:03:32;;;;;;;0.70;0.47;;;13.80;77.90;;;;;;5013532;28;20045;-51
2021/10/13 12:05:58;;;;;;;0.90;0.68;;;13.80;73.00;;;;;;5013519;28;20026;-52
2021/10/13 12:08:44;;;;;;;0.90;0.60;;;13.80;76.50;;;;;;5013466;28;20029;-49
2021/10/13 12:11:26;;;;;;;2.45;0.47;;;13.80;73.50;;;;;;5012897;28;20049;-52
2021/10/13 12:13:52;;;;;;;0.60;0.50;;;13.80;74.20;;;;;;5012197;28;20033;-50
2021/10/13 12:16:22;;;;;;;1.50;0.40;;;13.70;73.60;;;;;;5013317;28;20021;-52
2021/10/13 12:18:48;;;;;;;1.27;0.60;;;13.60;73.20;;;;;;5013356;28;20034;-50
2021/10/13 12:21:19;;;;;;;0.93;0.60;;;13.50;74.20;;;;;;5013225;28;20077;-52
2021/10/13 12:23:58;;;;;;;1.02;0.50;;;13.50;76.20;;;;;;5013165;28;20366;-54
2021/10/13 12:26:26;;;;;;;3.00;0.70;;;13.50;77.10;;;;;;5013240;28;20022;-54
2021/10/13 12:28:54;;;;;;;1.23;0.75;;;13.60;79.10;;;;;;5011948;28;20030;-51
2021/10/13 12:31:29;;;;;;;1.73;0.95;;;13.70;74.80;;;;;;5013136;28;20472;-50
2021/10/13 12:34:00;;;;;;;2.00;0.90;;;13.70;71.90;;;;;;5013154;28;20038;-49
2021/10/13 12:36:41;;;;;;;1.42;0.63;;;13.60;72.60;;;;;;5012977;28;20049;-53
2021/10/13 12:39:14;;;;;;;1.92;0.70;;;13.40;77.10;;;;;;5013013;28;20033;-50
2021/10/13 12:41:44;;;;;;;2.47;0.93;;;13.40;79.00;;;;;;5012987;28;20038;-53
2021/10/13 12:44:15;;;;;;;3.40;1.10;;;13.30;79.10;;;;;;5011795;28;20109;-48
2021/10/13 12:46:52;;;;;;;1.40;0.90;;;13.30;76.40;;;;;;5012862;28;20500;-51
2021/10/13 12:49:18;;;;;;;1.70;0.60;;;13.20;77.80;;;;;;5012954;28;20037;-50
2021/10/13 12:51:58;;;;;;;1.08;0.80;;;13.20;79.70;;;;;;5012912;28;20109;-48
2021/10/13 12:54:25;;;;;;;2.50;0.77;;;13.30;77.70;;;;;;5014391;28;20068;-51
2021/10/13 12:56:51;;;;;;;1.00;0.68;;;13.30;79.50;;;;;;5017024;28;20076;-49
2021/10/13 12:59:16;;;;;;;2.80;0.80;;;13.30;79.80;;;;;;5015478;28;20033;-51
2021/10/13 13:01:42;;;;;;;1.92;0.77;;;13.20;78.70;;;;;;5016850;28;20044;-48